createdAt,value
2018-12-03T00:01:33.146Z,4.80
2018-12-03T00:04:33.644Z,4.80
2018-12-03T00:07:04.117Z,4.90
2018-12-03T00:09:33.405Z,4.90
2018-12-03T00:12:03.112Z,4.80
2018-12-03T00:14:32.885Z,4.80
2018-12-03T00:17:02.125Z,4.80
2018-12-03T00:19:31.400Z,4.80
2018-12-03T00:22:00.658Z,4.80
2018-12-03T00:24:29.933Z,4.80
2018-12-03T00:26:59.354Z,4.80
2018-12-03T00:29:28.657Z,4.80
2018-12-03T00:31:57.973Z,4.70
2018-12-03T00:34:28.508Z,4.80
2018-12-03T00:36:57.745Z,4.70
2018-12-03T00:39:27.105Z,4.70
2018-12-03T00:41:56.550Z,4.70
2018-12-03T00:44:26.914Z,4.70
2018-12-03T00:46:56.185Z,4.70
2018-12-03T00:49:26.108Z,4.70
2018-12-03T00:51:56.257Z,4.80
2018-12-03T00:54:25.677Z,4.80
2018-12-03T00:56:54.873Z,4.70
2018-12-03T00:59:23.984Z,4.70
2018-12-03T01:01:54.091Z,4.70
2018-12-03T01:04:23.339Z,4.60
2018-12-03T01:06:52.652Z,4.60
2018-12-03T01:09:23.281Z,4.60
2018-12-03T01:11:52.840Z,4.60
2018-12-03T01:14:22.702Z,4.70
2018-12-03T01:16:53.389Z,4.60
2018-12-03T01:19:23.856Z,4.60
2018-12-03T01:21:53.382Z,4.70
2018-12-03T01:24:22.636Z,4.60
2018-12-03T01:26:53.266Z,4.60
2018-12-03T01:29:22.578Z,4.60
2018-12-03T01:31:52.981Z,4.70
2018-12-03T01:34:20.992Z,4.70
2018-12-03T01:36:50.722Z,4.70
2018-12-03T01:39:20.968Z,4.70
2018-12-03T01:41:50.395Z,4.80
2018-12-03T01:44:19.645Z,4.70
2018-12-03T01:46:48.920Z,4.70
2018-12-03T01:49:18.148Z,4.70
2018-12-03T01:51:48.270Z,4.60
2018-12-03T01:54:18.561Z,4.70
2018-12-03T01:56:48.764Z,4.60
2018-12-03T01:59:18.143Z,4.60
2018-12-03T02:01:47.849Z,4.70
2018-12-03T02:04:17.675Z,4.60
2018-12-03T02:06:47.614Z,4.50
2018-12-03T02:09:16.832Z,4.50
2018-12-03T02:11:46.589Z,4.60
2018-12-03T02:14:16.503Z,4.60
2018-12-03T02:16:46.767Z,4.60
2018-12-03T02:19:17.401Z,4.60
2018-12-03T02:21:46.607Z,4.60
2018-12-03T02:24:15.803Z,4.60
2018-12-03T02:26:45.580Z,4.60
2018-12-03T02:29:14.863Z,4.60
2018-12-03T02:31:45.297Z,4.60
2018-12-03T02:34:15.981Z,4.60
2018-12-03T02:36:46.313Z,4.60
2018-12-03T02:39:15.462Z,4.70
2018-12-03T02:41:46.177Z,4.70
2018-12-03T02:44:15.902Z,4.60
2018-12-03T02:46:45.820Z,4.70
2018-12-03T02:49:16.616Z,4.70
2018-12-03T02:51:46.548Z,4.60
2018-12-03T02:54:16.277Z,4.60
2018-12-03T02:56:45.751Z,4.60
2018-12-03T02:59:15.971Z,4.70
2018-12-03T03:01:45.257Z,4.70
2018-12-03T03:04:14.687Z,4.70
2018-12-03T03:06:44.204Z,4.70
2018-12-03T03:09:13.470Z,4.70
2018-12-03T03:11:42.812Z,4.70
2018-12-03T03:14:12.558Z,4.70
2018-12-03T03:16:41.938Z,4.70
2018-12-03T03:19:11.363Z,4.70
2018-12-03T03:21:40.648Z,4.70
2018-12-03T03:24:10.529Z,4.60
2018-12-03T03:26:39.988Z,4.70
2018-12-03T03:29:10.010Z,4.70
2018-12-03T03:31:41.396Z,4.70
2018-12-03T03:34:10.872Z,4.70
2018-12-03T03:36:40.097Z,4.70
2018-12-03T03:39:09.552Z,4.70
2018-12-03T03:41:39.604Z,4.70
2018-12-03T03:44:09.657Z,4.70
2018-12-03T03:46:38.816Z,4.70
2018-12-03T03:49:08.045Z,4.70
2018-12-03T03:51:37.469Z,4.70
2018-12-03T03:54:06.963Z,4.70
2018-12-03T03:56:37.003Z,4.80
2018-12-03T03:59:06.660Z,4.70
2018-12-03T04:01:36.589Z,4.70
2018-12-03T04:04:07.062Z,4.80
2018-12-03T04:06:37.328Z,4.80
2018-12-03T04:09:07.607Z,4.80
2018-12-03T04:11:37.596Z,4.80
2018-12-03T04:14:06.843Z,4.80
2018-12-03T04:16:36.233Z,4.80
2018-12-03T04:19:05.642Z,4.80
2018-12-03T04:21:35.476Z,4.80
2018-12-03T04:24:05.848Z,4.80
2018-12-03T04:26:35.889Z,4.80
2018-12-03T04:29:05.990Z,4.90
2018-12-03T04:31:35.195Z,4.90
2018-12-03T04:34:05.008Z,4.90
2018-12-03T04:36:34.249Z,4.90
2018-12-03T04:39:05.171Z,4.90
2018-12-03T04:41:34.917Z,4.90
2018-12-03T04:44:04.547Z,4.90
2018-12-03T04:46:35.433Z,4.90
2018-12-03T04:49:05.376Z,4.90
2018-12-03T04:51:34.808Z,4.90
2018-12-03T04:54:04.712Z,5.00
2018-12-03T04:56:33.941Z,5.00
2018-12-03T04:59:03.269Z,4.90
2018-12-03T05:01:33.022Z,4.90
2018-12-03T05:04:03.474Z,4.90
2018-12-03T05:06:33.220Z,5.00
2018-12-03T05:09:02.513Z,4.90
2018-12-03T05:11:32.292Z,4.90
2018-12-03T05:14:01.706Z,4.90
2018-12-03T05:16:31.810Z,4.90
2018-12-03T05:19:02.505Z,4.90
2018-12-03T05:21:32.575Z,4.90
2018-12-03T05:24:04.417Z,4.90
2018-12-03T05:26:32.116Z,4.90
2018-12-03T05:29:01.471Z,4.90
2018-12-03T05:31:30.753Z,5.00
2018-12-03T05:34:00.014Z,5.00
2018-12-03T05:36:29.147Z,5.00
2018-12-03T05:38:58.447Z,5.00
2018-12-03T05:41:27.785Z,5.00
2018-12-03T05:43:57.133Z,4.90
2018-12-03T05:46:26.876Z,5.00
2018-12-03T05:48:56.212Z,5.00
2018-12-03T05:51:25.488Z,5.00
2018-12-03T05:53:56.572Z,5.00
2018-12-03T05:56:25.892Z,5.00
2018-12-03T05:58:55.794Z,5.10
2018-12-03T06:01:25.257Z,5.10
2018-12-03T06:03:54.609Z,5.00
2018-12-03T06:06:23.859Z,5.00
2018-12-03T06:08:53.545Z,5.10
2018-12-03T06:11:22.977Z,5.10
2018-12-03T06:13:52.361Z,5.10
2018-12-03T06:16:21.960Z,5.10
2018-12-03T06:18:52.408Z,5.00
2018-12-03T06:21:21.829Z,5.10
2018-12-03T06:23:51.964Z,5.00
2018-12-03T06:26:21.758Z,5.00
2018-12-03T06:28:50.939Z,5.10
2018-12-03T06:31:21.024Z,5.00
2018-12-03T06:33:50.406Z,5.00
2018-12-03T06:36:19.788Z,5.00
2018-12-03T06:38:49.685Z,4.90
2018-12-03T06:41:18.962Z,4.90
2018-12-03T06:43:48.098Z,4.90
2018-12-03T06:46:17.916Z,4.90
2018-12-03T06:48:48.251Z,4.90
2018-12-03T06:51:18.082Z,4.90
2018-12-03T06:53:48.926Z,5.00
2018-12-03T06:56:18.206Z,5.00
2018-12-03T06:58:48.146Z,5.00
2018-12-03T07:01:18.225Z,5.00
2018-12-03T07:03:47.577Z,5.00
2018-12-03T07:06:16.964Z,5.00
2018-12-03T07:08:46.317Z,5.00
2018-12-03T07:11:17.193Z,5.00
2018-12-03T07:13:47.580Z,5.00
2018-12-03T07:16:17.584Z,5.00
2018-12-03T07:18:48.356Z,5.00
2018-12-03T07:21:17.467Z,5.10
2018-12-03T07:23:46.854Z,5.10
2018-12-03T07:26:17.328Z,5.10
2018-12-03T07:28:46.565Z,5.10
2018-12-03T07:31:15.774Z,5.20
2018-12-03T07:33:45.875Z,5.10
2018-12-03T07:36:15.101Z,5.10
2018-12-03T07:38:45.844Z,5.10
2018-12-03T07:41:15.423Z,5.20
2018-12-03T07:43:44.782Z,5.20
2018-12-03T07:46:14.061Z,5.10
2018-12-03T07:48:43.336Z,5.20
2018-12-03T07:51:12.960Z,5.20
2018-12-03T07:53:42.126Z,5.20
2018-12-03T07:56:11.334Z,5.20
2018-12-03T07:58:41.046Z,5.20
2018-12-03T08:01:10.303Z,5.10
2018-12-03T08:03:40.551Z,5.10
2018-12-03T08:06:09.898Z,5.10
2018-12-03T08:08:39.296Z,5.20
2018-12-03T08:11:09.512Z,5.10
2018-12-03T08:13:38.651Z,5.20
2018-12-03T08:16:08.414Z,5.20
2018-12-03T08:18:39.048Z,5.20
2018-12-03T08:21:09.255Z,5.20
2018-12-03T08:23:47.841Z,5.20
2018-12-03T08:26:17.972Z,5.20
2018-12-03T08:28:48.054Z,5.20
2018-12-03T08:31:17.951Z,5.30
2018-12-03T08:33:48.405Z,5.30
2018-12-03T08:36:17.827Z,5.30
2018-12-03T08:38:47.147Z,5.30
2018-12-03T08:41:16.359Z,5.30
2018-12-03T08:43:46.172Z,5.30
2018-12-03T08:46:15.286Z,5.30
2018-12-03T08:48:45.375Z,5.30
2018-12-03T08:51:14.502Z,5.30
2018-12-03T08:53:47.913Z,5.40
2018-12-03T08:56:17.334Z,5.40
2018-12-03T08:58:47.677Z,5.40
2018-12-03T09:01:18.471Z,5.40
2018-12-03T09:03:53.071Z,5.40
2018-12-03T09:06:22.337Z,5.40
2018-12-03T09:08:52.238Z,5.50
2018-12-03T09:11:22.678Z,5.50
2018-12-03T09:13:52.753Z,5.50
2018-12-03T09:16:23.194Z,5.50
2018-12-03T09:18:53.282Z,5.60
2018-12-03T09:21:23.293Z,5.50
2018-12-03T09:23:54.024Z,5.60
2018-12-03T09:26:23.445Z,5.60
2018-12-03T09:28:53.131Z,5.60
2018-12-03T09:31:23.627Z,5.60
2018-12-03T09:33:58.124Z,5.60
2018-12-03T09:36:28.200Z,5.60
2018-12-03T09:39:03.018Z,5.60
2018-12-03T09:41:32.287Z,5.70
2018-12-03T09:44:02.000Z,5.70
2018-12-03T09:46:31.468Z,5.70
2018-12-03T09:49:02.658Z,5.70
2018-12-03T09:51:33.279Z,5.80
2018-12-03T09:54:04.938Z,5.80
2018-12-03T09:56:37.601Z,5.80
2018-12-03T09:59:24.143Z,5.90
2018-12-03T10:01:55.499Z,5.90
2018-12-03T10:04:29.690Z,5.90
2018-12-03T10:06:59.002Z,5.90
2018-12-03T10:09:28.406Z,5.90
2018-12-03T10:11:59.065Z,5.90
2018-12-03T10:14:28.311Z,5.90
2018-12-03T10:16:57.756Z,5.90
2018-12-03T10:19:26.864Z,6.00
2018-12-03T10:21:56.513Z,6.00
2018-12-03T10:24:25.971Z,6.00
2018-12-03T10:26:55.330Z,6.00
2018-12-03T10:29:24.497Z,6.00
2018-12-03T10:31:54.018Z,6.10
2018-12-03T10:34:23.440Z,6.10
2018-12-03T10:36:55.506Z,6.10
2018-12-03T10:39:29.738Z,6.10
2018-12-03T10:42:02.140Z,6.20
2018-12-03T10:44:32.738Z,6.10
2018-12-03T10:47:03.048Z,6.10
2018-12-03T10:49:32.342Z,6.20
2018-12-03T10:52:01.710Z,6.10
2018-12-03T10:54:37.016Z,6.10
2018-12-03T10:57:07.940Z,6.20
2018-12-03T10:59:38.227Z,6.20
2018-12-03T11:02:13.131Z,6.20
2018-12-03T11:04:44.009Z,6.30
2018-12-03T11:07:15.494Z,6.30
2018-12-03T11:09:46.200Z,6.30
2018-12-03T11:12:16.154Z,6.30
2018-12-03T11:14:46.035Z,6.30
2018-12-03T11:17:16.272Z,6.30
2018-12-03T11:19:48.344Z,6.40
2018-12-03T11:22:22.523Z,6.30
2018-12-03T11:24:51.956Z,6.40
2018-12-03T11:27:22.076Z,6.40
2018-12-03T11:29:52.602Z,6.40
2018-12-03T11:32:22.137Z,6.40
2018-12-03T11:34:51.996Z,6.40
2018-12-03T11:37:21.760Z,6.40
2018-12-03T11:39:55.971Z,6.40
2018-12-03T11:42:28.549Z,6.50
2018-12-03T11:44:58.579Z,6.50
2018-12-03T11:47:27.983Z,6.50
2018-12-03T11:49:57.436Z,6.50
2018-12-03T11:52:27.090Z,6.50
2018-12-03T11:54:56.516Z,6.50
2018-12-03T11:57:25.790Z,6.60
2018-12-03T11:59:55.128Z,6.50
2018-12-03T12:02:24.607Z,6.50
2018-12-03T12:04:54.818Z,6.50
2018-12-03T12:07:24.929Z,6.50
2018-12-03T12:09:55.213Z,6.50
2018-12-03T12:12:25.172Z,6.50
2018-12-03T12:14:55.066Z,6.50
2018-12-03T12:17:24.388Z,6.50
2018-12-03T12:19:54.271Z,6.40
2018-12-03T12:22:24.932Z,6.50
2018-12-03T12:24:54.688Z,6.50
2018-12-03T12:27:24.448Z,6.50
2018-12-03T12:29:54.464Z,6.50
2018-12-03T12:32:23.617Z,6.50
2018-12-03T12:34:52.907Z,6.50
2018-12-03T12:37:22.243Z,6.50
2018-12-03T12:39:51.510Z,6.50
2018-12-03T12:42:21.359Z,6.50
2018-12-03T12:44:50.634Z,6.60
2018-12-03T12:47:19.969Z,6.60
2018-12-03T12:49:50.926Z,6.60
2018-12-03T12:52:20.226Z,6.60
2018-12-03T12:54:50.160Z,6.60
2018-12-03T12:57:19.440Z,6.60
2018-12-03T12:59:49.369Z,6.60
2018-12-03T13:02:18.814Z,6.60
2018-12-03T13:04:49.365Z,6.70
2018-12-03T13:07:18.631Z,6.70
2018-12-03T13:09:47.843Z,6.70
2018-12-03T13:12:17.123Z,6.70
2018-12-03T13:14:47.254Z,6.70
2018-12-03T13:17:17.120Z,6.70
2018-12-03T13:19:46.502Z,6.70
2018-12-03T13:22:17.036Z,6.70
2018-12-03T13:24:47.084Z,6.80
2018-12-03T13:27:16.441Z,6.70
2018-12-03T13:29:46.636Z,6.80
2018-12-03T13:32:16.549Z,6.70
2018-12-03T13:34:45.885Z,6.70
2018-12-03T13:37:15.215Z,6.60
2018-12-03T13:39:44.730Z,6.60
2018-12-03T13:42:14.007Z,6.60
2018-12-03T13:44:44.184Z,6.60
2018-12-03T13:47:13.378Z,6.60
2018-12-03T13:49:42.758Z,6.60
2018-12-03T13:52:12.655Z,6.60
2018-12-03T13:54:42.095Z,6.70
2018-12-03T13:57:12.110Z,6.70
2018-12-03T13:59:42.243Z,6.70
2018-12-03T14:02:11.873Z,6.70
2018-12-03T14:04:41.643Z,6.70
2018-12-03T14:07:27.639Z,6.70
2018-12-03T14:10:08.902Z,6.70
2018-12-03T14:12:55.932Z,6.70
2018-12-03T14:15:38.455Z,6.80
2018-12-03T14:18:17.237Z,6.80
2018-12-03T14:20:48.763Z,6.80
2018-12-03T14:23:21.685Z,6.80
2018-12-03T14:25:51.583Z,6.90
2018-12-03T14:28:20.924Z,6.80
2018-12-03T14:30:50.819Z,6.80
2018-12-03T14:33:20.020Z,6.90
2018-12-03T14:35:49.411Z,6.90
2018-12-03T14:38:19.093Z,6.80
2018-12-03T14:40:48.946Z,6.90
2018-12-03T14:43:18.778Z,6.90
2018-12-03T14:45:48.061Z,6.90
2018-12-03T14:48:18.479Z,6.90
2018-12-03T14:50:47.739Z,6.90
2018-12-03T14:53:17.386Z,7.00
2018-12-03T14:55:47.232Z,7.00
2018-12-03T14:58:16.514Z,7.00
2018-12-03T15:00:45.849Z,7.00
2018-12-03T15:03:15.669Z,7.00
2018-12-03T15:05:44.949Z,7.00
2018-12-03T15:08:14.939Z,7.00
2018-12-03T15:10:44.347Z,7.00
2018-12-03T15:13:13.679Z,7.00
2018-12-03T15:15:43.584Z,7.10
2018-12-03T15:18:12.764Z,7.10
2018-12-03T15:20:42.538Z,7.10
2018-12-03T15:23:12.391Z,7.20
2018-12-03T15:25:43.892Z,7.20
2018-12-03T15:28:15.563Z,7.20
2018-12-03T15:30:44.120Z,7.20
2018-12-03T15:33:14.644Z,7.30
2018-12-03T15:35:43.953Z,7.30
2018-12-03T15:38:14.313Z,7.30
2018-12-03T15:40:45.094Z,7.40
2018-12-03T15:43:15.150Z,7.40
2018-12-03T15:45:44.577Z,7.40
2018-12-03T15:48:14.565Z,7.40
2018-12-03T15:50:43.895Z,7.40
2018-12-03T15:53:13.162Z,7.50
2018-12-03T15:55:42.972Z,7.40
2018-12-03T15:58:12.540Z,7.50
2018-12-03T16:00:41.667Z,7.50
2018-12-03T16:03:10.879Z,7.50
2018-12-03T16:05:40.015Z,7.50
2018-12-03T16:08:10.072Z,7.50
2018-12-03T16:10:39.859Z,7.50
2018-12-03T16:13:09.681Z,7.60
2018-12-03T16:15:38.934Z,7.60
2018-12-03T16:18:08.224Z,7.60
2018-12-03T16:20:37.634Z,7.70
2018-12-03T16:23:07.259Z,7.70
2018-12-03T16:25:37.361Z,7.70
2018-12-03T16:28:07.388Z,7.70
2018-12-03T16:30:37.420Z,7.70
2018-12-03T16:33:07.086Z,7.80
2018-12-03T16:35:37.137Z,7.80
2018-12-03T16:38:06.420Z,7.80
2018-12-03T16:40:36.459Z,7.80
2018-12-03T16:43:05.764Z,7.80
2018-12-03T16:45:35.125Z,7.80
2018-12-03T16:48:05.000Z,7.80
2018-12-03T16:50:35.178Z,7.80
2018-12-03T16:53:04.469Z,7.80
2018-12-03T16:55:33.829Z,7.80
2018-12-03T16:58:02.930Z,7.80
2018-12-03T17:00:32.448Z,7.80
2018-12-03T17:03:01.854Z,7.80
2018-12-03T17:05:30.967Z,7.80
2018-12-03T17:08:02.239Z,7.80
2018-12-03T17:10:32.338Z,7.80
2018-12-03T17:13:01.662Z,7.80
2018-12-03T17:15:30.986Z,7.80
2018-12-03T17:18:00.143Z,7.80
2018-12-03T17:20:49.115Z,7.80
2018-12-03T17:23:32.827Z,7.80
2018-12-03T17:26:02.204Z,7.80
2018-12-03T17:28:31.642Z,7.70
2018-12-03T17:31:01.247Z,7.70
2018-12-03T17:33:30.590Z,7.70
2018-12-03T17:36:00.639Z,7.70
2018-12-03T17:38:30.026Z,7.70
2018-12-03T17:40:59.978Z,7.70
2018-12-03T17:43:29.304Z,7.70
2018-12-03T17:45:58.500Z,7.70
2018-12-03T17:48:28.471Z,7.70
2018-12-03T17:50:58.132Z,7.70
2018-12-03T17:53:27.442Z,7.60
2018-12-03T17:55:56.876Z,7.60
2018-12-03T17:58:27.396Z,7.60
2018-12-03T18:00:57.035Z,7.60
2018-12-03T18:03:30.086Z,7.60
2018-12-03T18:05:58.261Z,7.50
2018-12-03T18:08:27.516Z,7.50
2018-12-03T18:10:57.608Z,7.50
2018-12-03T18:13:28.064Z,7.50
2018-12-03T18:15:57.788Z,7.60
2018-12-03T18:18:29.082Z,7.60
2018-12-03T18:20:59.037Z,7.60
2018-12-03T18:23:28.541Z,7.60
2018-12-03T18:25:58.160Z,7.60
2018-12-03T18:28:28.478Z,7.60
2018-12-03T18:30:58.422Z,7.60
2018-12-03T18:33:28.344Z,7.60
2018-12-03T18:35:58.101Z,7.60
2018-12-03T18:38:27.416Z,7.60
2018-12-03T18:40:56.614Z,7.70
2018-12-03T18:43:25.868Z,7.60
2018-12-03T18:45:55.272Z,7.60
2018-12-03T18:48:24.704Z,7.60
2018-12-03T18:50:55.111Z,7.60
2018-12-03T18:53:26.677Z,7.60
2018-12-03T18:55:55.940Z,7.50
2018-12-03T18:58:35.287Z,7.50
2018-12-03T19:01:04.045Z,7.50
2018-12-03T19:03:34.289Z,7.50
2018-12-03T19:06:04.544Z,7.50
2018-12-03T19:08:34.009Z,7.50
2018-12-03T19:11:05.081Z,7.50
2018-12-03T19:13:35.083Z,7.50
2018-12-03T19:16:04.248Z,7.50
2018-12-03T19:18:33.365Z,7.50
2018-12-03T19:21:02.965Z,7.50
2018-12-03T19:23:33.963Z,7.60
2018-12-03T19:26:03.241Z,7.60
2018-12-03T19:28:33.030Z,7.50
2018-12-03T19:31:02.433Z,7.60
2018-12-03T19:33:32.354Z,7.60
2018-12-03T19:36:02.225Z,7.60
2018-12-03T19:38:31.429Z,7.60
2018-12-03T19:41:00.698Z,7.60
2018-12-03T19:43:29.974Z,7.60
2018-12-03T19:45:59.418Z,7.60
2018-12-03T19:48:28.820Z,7.70
2018-12-03T19:50:58.906Z,7.70
2018-12-03T19:53:28.728Z,7.70
2018-12-03T19:55:57.955Z,7.60
2018-12-03T19:58:30.378Z,7.70
2018-12-03T20:01:00.096Z,7.60
2018-12-03T20:03:29.254Z,7.70
2018-12-03T20:05:59.533Z,7.70
2018-12-03T20:08:29.947Z,7.70
2018-12-03T20:11:00.531Z,7.70
2018-12-03T20:13:29.761Z,7.80
2018-12-03T20:15:58.930Z,7.80
2018-12-03T20:18:28.092Z,7.80
2018-12-03T20:21:03.510Z,7.80
2018-12-03T20:23:38.720Z,7.80
2018-12-03T20:26:27.965Z,7.90
2018-12-03T20:29:04.247Z,7.90
2018-12-03T20:31:56.682Z,7.90
2018-12-03T20:34:39.006Z,7.90
2018-12-03T20:37:33.766Z,7.90
2018-12-03T20:40:24.151Z,7.90
2018-12-03T20:43:06.710Z,7.90
2018-12-03T20:45:57.122Z,7.90
2018-12-03T20:48:42.429Z,8.00
2018-12-03T20:51:47.640Z,7.90
2018-12-03T20:54:17.487Z,8.00
2018-12-03T20:56:46.759Z,8.00
2018-12-03T20:59:16.794Z,8.00
2018-12-03T21:01:47.999Z,8.00
2018-12-03T21:04:21.660Z,8.10
2018-12-03T21:06:51.779Z,8.10
2018-12-03T21:09:20.965Z,8.10
2018-12-03T21:11:50.287Z,8.10
2018-12-03T21:14:20.228Z,8.10
2018-12-03T21:16:48.917Z,8.10
2018-12-03T21:19:18.108Z,8.20
2018-12-03T21:21:47.320Z,8.20
2018-12-03T21:24:17.080Z,8.20
2018-12-03T21:26:46.267Z,8.20
2018-12-03T21:29:16.580Z,8.20
2018-12-03T21:31:46.138Z,8.20
2018-12-03T21:34:45.689Z,8.20
2018-12-03T21:37:13.768Z,8.20
2018-12-03T21:39:41.828Z,8.20
2018-12-03T21:42:09.900Z,8.20
2018-12-03T21:44:37.951Z,8.10
2018-12-03T21:47:06.042Z,8.10
2018-12-03T21:49:34.410Z,8.10
2018-12-03T21:52:02.474Z,8.10
2018-12-03T21:54:30.548Z,8.00
2018-12-03T21:56:58.630Z,7.90
2018-12-03T21:59:26.702Z,7.90
2018-12-03T22:01:54.792Z,8.00
2018-12-03T22:04:22.842Z,7.90
2018-12-03T22:06:50.934Z,7.90
2018-12-03T22:09:19.016Z,7.90
2018-12-03T22:11:47.108Z,7.90
2018-12-03T22:14:15.182Z,7.90
2018-12-03T22:16:43.242Z,7.80
2018-12-03T22:19:11.311Z,7.90
2018-12-03T22:21:39.388Z,7.90
2018-12-03T22:24:07.797Z,7.90
2018-12-03T22:26:35.876Z,7.90
2018-12-03T22:29:03.944Z,7.90
2018-12-03T22:31:32.249Z,7.90
2018-12-03T22:34:00.335Z,7.90
2018-12-03T22:36:28.401Z,7.80
2018-12-03T22:38:56.480Z,7.80
2018-12-03T22:41:24.565Z,7.80
2018-12-03T22:43:52.642Z,7.80
2018-12-03T22:46:20.716Z,7.70
2018-12-03T22:48:48.797Z,7.70
2018-12-03T22:51:16.874Z,7.60
2018-12-03T22:53:44.977Z,7.70
2018-12-03T22:56:13.069Z,7.70
2018-12-03T22:58:41.155Z,7.70
2018-12-03T23:01:09.334Z,7.60
2018-12-03T23:03:37.410Z,7.60
2018-12-03T23:06:05.503Z,7.60
2018-12-03T23:08:33.588Z,7.60
2018-12-03T23:11:01.669Z,7.50
2018-12-03T23:13:29.740Z,7.50
2018-12-03T23:15:57.815Z,7.60
2018-12-03T23:18:25.873Z,7.60
2018-12-03T23:20:54.043Z,7.60
2018-12-03T23:23:22.093Z,7.60
2018-12-03T23:25:50.172Z,7.60
2018-12-03T23:28:18.893Z,7.60
2018-12-03T23:30:46.972Z,7.60
2018-12-03T23:33:15.047Z,7.60
2018-12-03T23:35:43.112Z,7.60
2018-12-03T23:38:11.198Z,7.60
2018-12-03T23:40:39.278Z,7.60
2018-12-03T23:43:07.345Z,7.60
2018-12-03T23:45:35.442Z,7.60
2018-12-03T23:48:03.496Z,7.60
2018-12-03T23:50:31.580Z,7.70
2018-12-03T23:52:59.643Z,7.70
2018-12-03T23:55:27.715Z,7.70
2018-12-03T23:57:55.795Z,7.70
